Terminal Aerodrome Forecast
Issued by NWS

Home | Current Version | Previous Version | Graphics & Text | Print | Product List | Glossary On
Versions: 1 2 3 4 5 6 7 8 9 10 11 12 13 14 15 16 17 18 19 20
922
FTUS43 KGRB 151549 AAB
TAFMTW
TAF AMD
KMTW 151549Z 1516/1612 36006KT P6SM FEW012 BKN020
     FM151700 04005KT P6SM SCT030
     FM160100 10004KT P6SM SCT200
     FM161100 VRB03KT P6SM BKN150=

USA.gov is the U.S. government's official web portal to all federal, state and local government web resources and services.